createdAt,value
2022-08-29T00:03:08.461Z,99278.66
2022-08-29T00:08:11.834Z,99278.88
2022-08-29T00:13:15.459Z,99260.63
2022-08-29T00:18:20.620Z,99262.19
2022-08-29T00:23:23.296Z,99256.97
2022-08-29T00:28:25.919Z,99235.44
2022-08-29T00:33:28.828Z,99238.09
2022-08-29T00:38:31.629Z,99232.31
2022-08-29T00:43:37.051Z,99222.00
2022-08-29T00:48:41.325Z,99209.13
2022-08-29T00:53:46.959Z,99203.47
2022-08-29T00:59:01.261Z,99182.56
2022-08-29T01:04:05.217Z,99185.03
2022-08-29T01:09:12.753Z,99168.84
2022-08-29T01:14:17.911Z,99171.03
2022-08-29T01:19:27.928Z,99121.31
2022-08-29T01:24:34.706Z,99163.81
2022-08-29T01:29:37.366Z,99158.31
2022-08-29T01:34:41.946Z,99145.94
2022-08-29T01:39:45.849Z,99145.06
2022-08-29T01:44:55.459Z,99121.84
2022-08-29T01:49:58.909Z,99101.50
2022-08-29T01:55:01.677Z,99108.53
2022-08-29T02:00:08.521Z,99115.66
2022-08-29T02:05:11.627Z,99104.63
2022-08-29T02:10:14.304Z,99102.84
2022-08-29T02:15:19.008Z,99108.03
2022-08-29T02:20:21.683Z,99106.78
2022-08-29T02:25:42.382Z,99089.47
2022-08-29T02:30:49.916Z,99079.81
2022-08-29T02:35:59.505Z,99098.31
2022-08-29T02:41:03.104Z,99081.53
2022-08-29T02:46:06.138Z,99078.81
2022-08-29T02:51:08.953Z,99064.53
2022-08-29T02:56:14.311Z,99054.59
2022-08-29T03:01:20.661Z,99061.25
2022-08-29T03:06:23.992Z,99065.41
2022-08-29T03:11:28.635Z,99051.31
2022-08-29T03:16:31.470Z,99061.97
2022-08-29T03:21:34.164Z,99045.53
2022-08-29T03:26:37.877Z,99056.53
2022-08-29T03:31:40.575Z,99035.50
2022-08-29T03:36:43.312Z,99059.38
2022-08-29T03:41:46.163Z,99073.09
2022-08-29T03:46:49.035Z,99062.38
2022-08-29T03:51:52.058Z,99062.66
2022-08-29T03:56:55.834Z,98971.44
2022-08-29T04:01:58.785Z,99023.13
2022-08-29T04:07:02.733Z,99017.84
2022-08-29T04:12:05.578Z,98997.31
2022-08-29T04:17:10.379Z,99009.94
2022-08-29T04:22:13.863Z,99000.31
2022-08-29T04:27:17.684Z,98956.97
2022-08-29T04:32:20.719Z,98954.72
2022-08-29T04:37:24.007Z,98956.31
2022-08-29T04:42:26.712Z,98952.47
2022-08-29T04:47:29.344Z,98951.41
2022-08-29T04:52:32.578Z,98935.84
2022-08-29T04:57:36.657Z,98916.00
2022-08-29T05:02:40.519Z,98919.88
2022-08-29T05:07:43.812Z,98908.78
2022-08-29T05:12:46.882Z,98927.66
2022-08-29T05:17:49.541Z,98939.72
2022-08-29T05:22:52.457Z,98943.59
2022-08-29T05:27:55.050Z,98919.78
2022-08-29T05:32:58.810Z,98937.38
2022-08-29T05:38:07.133Z,98915.84
2022-08-29T05:43:12.301Z,98919.28
2022-08-29T05:48:17.418Z,98941.66
2022-08-29T05:53:20.327Z,98918.69
2022-08-29T05:58:23.206Z,98924.81
2022-08-29T06:03:25.955Z,98911.59
2022-08-29T06:08:28.700Z,98915.47
2022-08-29T06:13:31.462Z,98902.63
2022-08-29T06:18:35.299Z,98885.41
2022-08-29T06:23:40.676Z,98911.72
2022-08-29T06:28:46.248Z,98923.66
2022-08-29T06:33:53.800Z,98899.91
2022-08-29T06:39:01.228Z,98894.19
2022-08-29T06:44:04.710Z,98871.88
2022-08-29T06:49:10.515Z,98880.22
2022-08-29T06:54:13.845Z,98890.91
2022-08-29T06:59:16.915Z,98878.22
2022-08-29T07:04:20.654Z,98879.59
2022-08-29T07:09:24.017Z,98884.19
2022-08-29T07:14:26.693Z,98885.84
2022-08-29T07:19:29.390Z,98870.50
2022-08-29T07:24:32.633Z,98844.22
2022-08-29T07:29:35.506Z,98896.69
2022-08-29T07:34:38.173Z,98866.00
2022-08-29T07:39:40.852Z,98865.28
2022-08-29T07:44:43.559Z,98884.75
2022-08-29T07:49:46.186Z,98874.41
2022-08-29T07:54:48.964Z,98882.44
2022-08-29T07:59:52.171Z,98878.09
2022-08-29T08:04:54.812Z,98865.63
2022-08-29T08:09:57.542Z,98886.13
2022-08-29T08:15:00.958Z,98888.53
2022-08-29T08:20:07.392Z,98885.06
2022-08-29T08:25:10.134Z,98877.88
2022-08-29T08:30:13.835Z,98852.47
2022-08-29T08:35:16.748Z,98878.91
2022-08-29T08:40:26.801Z,98875.84
2022-08-29T08:45:42.962Z,98875.91
2022-08-29T08:50:54.415Z,98876.78
2022-08-29T08:56:00.140Z,98871.81
2022-08-29T09:01:30.278Z,98864.34
2022-08-29T09:06:51.474Z,98856.28
2022-08-29T09:12:04.957Z,98867.41
2022-08-29T09:17:13.729Z,98863.00
2022-08-29T09:22:23.926Z,98866.34
2022-08-29T09:27:29.409Z,98868.84
2022-08-29T09:32:32.604Z,98878.13
2022-08-29T09:37:35.521Z,98886.22
2022-08-29T09:42:42.115Z,98893.31
2022-08-29T09:47:45.584Z,98901.56
2022-08-29T09:52:58.927Z,98898.28
2022-08-29T09:58:08.750Z,98897.59
2022-08-29T10:03:22.369Z,98872.69
2022-08-29T10:08:36.338Z,98884.41
2022-08-29T10:13:43.471Z,98871.91
2022-08-29T10:19:02.949Z,98875.69
2022-08-29T10:24:24.420Z,98877.28
2022-08-29T10:29:40.321Z,98884.53
2022-08-29T10:35:11.805Z,98874.84
2022-08-29T10:40:25.607Z,98903.84
2022-08-29T10:45:45.509Z,98893.47
2022-08-29T10:50:57.299Z,98894.72
2022-08-29T10:56:07.002Z,98901.72
2022-08-29T11:01:33.348Z,98915.53
2022-08-29T11:06:48.890Z,98906.91
2022-08-29T11:12:18.083Z,98934.81
2022-08-29T11:17:26.740Z,98938.88
2022-08-29T11:22:41.294Z,98941.88
2022-08-29T11:27:54.129Z,98926.03
2022-08-29T11:33:12.652Z,98952.09
2022-08-29T11:39:01.811Z,98947.84
2022-08-29T11:44:30.672Z,98947.28
2022-08-29T11:49:37.830Z,98936.38
2022-08-29T11:54:43.509Z,98974.03
2022-08-29T11:59:49.344Z,98970.28
2022-08-29T12:05:00.944Z,98946.63
2022-08-29T12:10:07.987Z,98960.19
2022-08-29T12:15:50.351Z,98979.91
2022-08-29T12:20:55.779Z,98991.63
2022-08-29T12:26:21.941Z,98989.31
2022-08-29T12:32:22.732Z,98982.91
2022-08-29T12:37:41.380Z,98985.09
2022-08-29T12:43:22.704Z,98992.41
2022-08-29T12:48:53.415Z,98994.03
2022-08-29T12:54:00.509Z,98998.47
2022-08-29T12:59:05.106Z,99005.19
2022-08-29T13:04:10.551Z,99004.88
2022-08-29T13:09:17.688Z,99003.63
2022-08-29T13:14:21.454Z,99002.53
2022-08-29T13:19:25.013Z,99004.56
2022-08-29T13:24:27.741Z,98990.47
2022-08-29T13:29:42.749Z,98991.22
2022-08-29T13:35:03.609Z,99004.84
2022-08-29T13:40:41.982Z,99001.88
2022-08-29T13:45:45.611Z,99006.00
2022-08-29T13:50:48.343Z,98995.72
2022-08-29T13:55:51.286Z,98993.09
2022-08-29T14:00:55.002Z,98990.34
2022-08-29T14:05:58.534Z,99004.94
2022-08-29T14:11:01.349Z,98998.09
2022-08-29T14:16:04.521Z,99017.44
2022-08-29T14:21:07.441Z,98994.19
2022-08-29T14:26:10.279Z,99001.63
2022-08-29T14:31:13.053Z,99001.00
2022-08-29T14:36:15.691Z,98996.41
2022-08-29T14:41:19.482Z,98984.31
2022-08-29T14:46:22.377Z,98997.66
2022-08-29T14:51:25.605Z,98989.31
2022-08-29T14:56:47.592Z,99005.78
2022-08-29T15:01:54.519Z,98988.44
2022-08-29T15:06:57.974Z,98989.28
2022-08-29T15:12:00.756Z,98959.28
2022-08-29T15:17:05.357Z,98985.19
2022-08-29T15:22:08.325Z,98974.97
2022-08-29T15:27:12.092Z,98981.00
2022-08-29T15:32:15.094Z,98972.50
2022-08-29T15:37:18.048Z,98976.56
2022-08-29T15:42:24.289Z,98972.59
2022-08-29T15:47:28.188Z,98971.28
2022-08-29T15:52:31.260Z,98979.84
2022-08-29T15:57:34.704Z,98978.69
2022-08-29T16:02:54.884Z,98988.94
2022-08-29T16:07:57.722Z,98957.22
2022-08-29T16:13:00.754Z,98982.88
2022-08-29T16:18:04.265Z,98981.69
2022-08-29T16:23:07.408Z,98976.69
2022-08-29T16:28:10.346Z,98971.34
2022-08-29T16:33:13.295Z,98982.63
2022-08-29T16:38:16.297Z,98980.63
2022-08-29T16:43:19.393Z,98954.56
2022-08-29T16:48:22.826Z,98953.72
2022-08-29T16:53:26.056Z,98973.53
2022-08-29T16:58:47.404Z,98972.47
2022-08-29T17:03:50.134Z,98970.56
2022-08-29T17:08:52.725Z,98976.66
2022-08-29T17:13:56.160Z,98964.56
2022-08-29T17:18:58.965Z,98943.03
2022-08-29T17:24:02.486Z,98954.56
2022-08-29T17:29:06.707Z,98949.38
2022-08-29T17:34:09.814Z,98966.34
2022-08-29T17:39:13.079Z,98970.38
2022-08-29T17:44:15.902Z,98961.09
2022-08-29T17:49:18.608Z,98958.03
2022-08-29T17:54:23.298Z,98947.28
2022-08-29T17:59:31.428Z,98962.66
2022-08-29T18:04:34.071Z,98936.81
2022-08-29T18:09:36.867Z,98961.03
2022-08-29T18:14:39.739Z,98929.59
2022-08-29T18:19:42.416Z,98953.03
2022-08-29T18:24:47.476Z,98932.78
2022-08-29T18:29:50.136Z,98934.94
2022-08-29T18:34:57.561Z,98939.09
2022-08-29T18:40:05.509Z,98895.63
2022-08-29T18:45:09.846Z,98926.84
2022-08-29T18:50:30.959Z,98921.56
2022-08-29T18:55:34.289Z,98922.91
2022-08-29T19:00:38.064Z,98892.81
2022-08-29T19:05:47.863Z,98916.84
2022-08-29T19:10:55.470Z,98904.81
2022-08-29T19:15:59.896Z,98902.25
2022-08-29T19:21:03.329Z,98906.19
2022-08-29T19:26:09.359Z,98899.22
2022-08-29T19:31:14.517Z,98896.59
2022-08-29T19:36:19.060Z,98899.31
2022-08-29T19:41:22.310Z,98891.63
2022-08-29T19:46:25.100Z,98896.50
2022-08-29T19:51:32.709Z,98877.81
2022-08-29T19:56:35.690Z,98882.53
2022-08-29T20:01:40.486Z,98866.91
2022-08-29T20:06:44.002Z,98865.56
2022-08-29T20:11:48.043Z,98871.59
2022-08-29T20:16:50.699Z,98863.97
2022-08-29T20:21:53.374Z,98855.81
2022-08-29T20:26:56.497Z,98847.53
2022-08-29T20:32:02.078Z,98860.03
2022-08-29T20:37:11.069Z,98854.59
2022-08-29T20:42:16.292Z,98847.53
2022-08-29T20:47:20.252Z,98828.03
2022-08-29T20:52:24.888Z,98839.28
2022-08-29T20:57:27.803Z,98847.53
2022-08-29T21:02:48.906Z,98848.09
2022-08-29T21:07:51.608Z,98863.69
2022-08-29T21:12:54.394Z,98858.81
2022-08-29T21:17:57.366Z,98824.00
2022-08-29T21:23:03.054Z,98822.22
2022-08-29T21:28:07.159Z,98847.44
2022-08-29T21:33:10.496Z,98832.06
2022-08-29T21:38:13.474Z,98818.59
2022-08-29T21:43:16.374Z,98832.63
2022-08-29T21:48:19.249Z,98821.13
2022-08-29T21:53:22.891Z,98818.84
2022-08-29T21:58:25.661Z,98816.28
2022-08-29T22:03:28.366Z,98819.69
2022-08-29T22:08:32.333Z,98770.00
2022-08-29T22:13:34.941Z,98820.16
2022-08-29T22:18:37.622Z,98817.63
2022-08-29T22:23:40.306Z,98808.06
2022-08-29T22:28:45.282Z,98811.91
2022-08-29T22:33:48.469Z,98817.63
2022-08-29T22:38:56.613Z,98808.66
2022-08-29T22:49:25.498Z,98796.13
2022-08-29T22:54:35.865Z,98817.72
2022-08-29T22:59:39.427Z,98815.31
2022-08-29T23:04:42.294Z,98816.72
2022-08-29T23:09:45.573Z,98805.47
2022-08-29T23:14:48.387Z,98794.59
2022-08-29T23:19:51.149Z,98784.38
2022-08-29T23:24:58.543Z,98790.28
2022-08-29T23:30:02.080Z,98781.47
2022-08-29T23:35:07.401Z,98767.06
2022-08-29T23:40:10.370Z,98789.94
2022-08-29T23:45:13.342Z,98771.28
2022-08-29T23:50:16.493Z,98764.53
2022-08-29T23:55:19.222Z,98775.59
